createdAt,value
2023-04-26T00:02:22.311Z,10.70
2023-04-26T00:04:56.719Z,11.43
2023-04-26T00:07:25.005Z,9.18
2023-04-26T00:09:55.109Z,10.63
2023-04-26T00:12:22.428Z,9.77
2023-04-26T00:14:49.833Z,10.05
2023-04-26T00:17:17.151Z,10.50
2023-04-26T00:19:47.277Z,10.55
2023-04-26T00:22:15.396Z,9.43
2023-04-26T00:24:43.464Z,8.88
2023-04-26T00:27:10.894Z,8.18
2023-04-26T00:29:38.216Z,7.25
2023-04-26T00:32:05.964Z,7.90
2023-04-26T00:34:37.363Z,7.78
2023-04-26T00:37:05.872Z,8.50
2023-04-26T00:39:33.514Z,8.00
2023-04-26T00:42:00.885Z,7.68
2023-04-26T00:44:28.160Z,7.95
2023-04-26T00:46:56.090Z,7.97
2023-04-26T00:49:24.735Z,8.43
2023-04-26T00:51:55.427Z,7.88
2023-04-26T00:54:22.816Z,8.20
2023-04-26T00:56:53.452Z,8.27
2023-04-26T00:59:21.524Z,8.07
2023-04-26T01:01:49.566Z,7.63
2023-04-26T01:04:18.101Z,8.30
2023-04-26T01:06:46.086Z,7.90
2023-04-26T01:09:15.676Z,8.55
2023-04-26T01:11:44.353Z,8.43
2023-04-26T01:14:12.948Z,8.15
2023-04-26T01:16:40.998Z,7.72
2023-04-26T01:19:12.981Z,7.85
2023-04-26T01:21:41.323Z,7.25
2023-04-26T01:24:13.582Z,9.40
2023-04-26T01:26:45.964Z,8.90
2023-04-26T01:29:20.763Z,8.27
2023-04-26T01:31:48.880Z,7.72
2023-04-26T01:34:16.661Z,7.65
2023-04-26T01:36:47.029Z,6.75
2023-04-26T01:39:14.380Z,7.43
2023-04-26T01:41:42.944Z,7.65
2023-04-26T01:44:10.230Z,7.40
2023-04-26T01:46:37.682Z,8.05
2023-04-26T01:49:05.423Z,7.75
2023-04-26T01:51:32.911Z,8.32
2023-04-26T01:54:00.413Z,8.80
2023-04-26T01:56:27.674Z,7.72
2023-04-26T01:58:57.592Z,7.50
2023-04-26T02:01:25.610Z,7.47
2023-04-26T02:03:53.042Z,7.03
2023-04-26T02:06:21.931Z,5.88
2023-04-26T02:08:49.807Z,7.20
2023-04-26T02:11:17.321Z,6.45
2023-04-26T02:13:44.883Z,7.25
2023-04-26T02:16:12.707Z,6.93
2023-04-26T02:18:41.698Z,7.57
2023-04-26T02:21:10.905Z,6.88
2023-04-26T02:23:38.204Z,7.10
2023-04-26T02:26:05.612Z,6.40
2023-04-26T02:28:32.712Z,7.75
2023-04-26T02:30:59.868Z,6.03
2023-04-26T02:33:27.092Z,6.93
2023-04-26T02:35:54.466Z,6.38
2023-04-26T02:38:22.352Z,6.45
2023-04-26T02:40:49.636Z,5.22
2023-04-26T02:43:18.168Z,5.35
2023-04-26T02:45:45.518Z,5.30
2023-04-26T02:48:14.814Z,4.60
2023-04-26T02:50:42.567Z,5.00
2023-04-26T02:53:11.415Z,4.65
2023-04-26T02:55:40.033Z,4.68
2023-04-26T02:58:07.771Z,5.20
2023-04-26T03:00:35.054Z,4.93
2023-04-26T03:03:02.923Z,4.60
2023-04-26T03:05:30.488Z,5.75
2023-04-26T03:07:58.145Z,5.65
2023-04-26T03:10:25.407Z,5.30
2023-04-26T03:12:52.672Z,5.80
2023-04-26T03:15:20.504Z,5.95
2023-04-26T03:17:47.988Z,6.15
2023-04-26T03:20:15.902Z,5.57
2023-04-26T03:22:43.308Z,5.30
2023-04-26T03:25:11.128Z,5.97
2023-04-26T03:27:38.527Z,5.80
2023-04-26T03:30:06.589Z,6.20
2023-04-26T03:32:36.079Z,5.75
2023-04-26T03:35:03.394Z,6.35
2023-04-26T03:37:32.372Z,6.40
2023-04-26T03:40:04.593Z,6.55
2023-04-26T03:42:33.699Z,6.53
2023-04-26T03:45:01.392Z,6.15
2023-04-26T03:47:28.745Z,6.30
2023-04-26T03:49:55.912Z,6.10
2023-04-26T03:52:23.223Z,6.93
2023-04-26T03:54:50.838Z,6.88
2023-04-26T03:57:18.475Z,7.18
2023-04-26T03:59:45.751Z,8.00
2023-04-26T04:02:12.991Z,7.57
2023-04-26T04:04:42.460Z,8.93
2023-04-26T04:07:09.884Z,8.05
2023-04-26T04:09:37.205Z,8.88
2023-04-26T04:12:04.468Z,9.32
2023-04-26T04:14:32.641Z,8.75
2023-04-26T04:17:00.016Z,9.68
2023-04-26T04:19:28.825Z,9.65
2023-04-26T04:21:56.396Z,9.77
2023-04-26T04:24:25.855Z,10.00
2023-04-26T04:26:53.503Z,10.02
2023-04-26T04:29:21.109Z,9.18
2023-04-26T04:31:48.548Z,9.25
2023-04-26T04:34:16.517Z,10.45
2023-04-26T04:36:44.401Z,10.90
2023-04-26T04:39:16.309Z,10.15
2023-04-26T04:41:48.432Z,10.68
2023-04-26T04:44:18.572Z,9.98
2023-04-26T04:46:46.433Z,9.98
2023-04-26T04:49:15.092Z,8.48
2023-04-26T04:51:43.089Z,10.07
2023-04-26T04:54:17.904Z,9.30
2023-04-26T04:56:47.607Z,8.85
2023-04-26T04:59:16.806Z,8.07
2023-04-26T05:01:44.585Z,7.70
2023-04-26T05:04:15.055Z,6.60
2023-04-26T05:06:43.505Z,6.10
2023-04-26T05:09:11.625Z,6.57
2023-04-26T05:11:39.490Z,6.35
2023-04-26T05:14:08.422Z,6.22
2023-04-26T05:16:36.062Z,6.18
2023-04-26T05:19:06.634Z,6.03
2023-04-26T05:21:36.048Z,6.63
2023-04-26T05:24:04.720Z,6.53
2023-04-26T05:26:32.164Z,7.00
2023-04-26T05:29:16.793Z,5.97
2023-04-26T05:31:59.800Z,6.97
2023-04-26T05:34:33.481Z,5.10
2023-04-26T05:37:01.293Z,6.38
2023-04-26T05:39:28.804Z,6.32
2023-04-26T05:41:56.567Z,6.07
2023-04-26T05:44:24.600Z,6.18
2023-04-26T05:46:52.637Z,6.45
2023-04-26T05:49:23.755Z,6.38
2023-04-26T05:51:51.739Z,6.70
2023-04-26T05:54:21.289Z,6.60
2023-04-26T05:56:51.595Z,6.65
2023-04-26T05:59:19.038Z,7.28
2023-04-26T06:01:46.286Z,6.65
2023-04-26T06:04:13.660Z,6.35
2023-04-26T06:06:50.474Z,8.48
2023-04-26T06:09:20.036Z,6.25
2023-04-26T06:11:48.137Z,6.70
2023-04-26T06:14:29.443Z,7.03
2023-04-26T06:17:01.218Z,6.05
2023-04-26T06:19:29.128Z,7.00
2023-04-26T06:21:57.397Z,5.90
2023-04-26T06:24:26.078Z,7.10
2023-04-26T06:26:53.656Z,6.25
2023-04-26T06:29:21.886Z,6.57
2023-04-26T06:31:49.644Z,6.55
2023-04-26T06:34:20.201Z,6.95
2023-04-26T06:36:48.252Z,6.20
2023-04-26T06:39:15.795Z,7.90
2023-04-26T06:41:43.830Z,6.50
2023-04-26T06:44:12.238Z,7.38
2023-04-26T06:46:43.564Z,6.25
2023-04-26T06:49:11.821Z,6.35
2023-04-26T06:51:39.077Z,6.97
2023-04-26T06:54:06.366Z,6.50
2023-04-26T06:56:33.623Z,7.20
2023-04-26T06:59:05.771Z,7.70
2023-04-26T07:01:34.430Z,7.22
2023-04-26T07:04:03.579Z,6.60
2023-04-26T07:06:31.713Z,7.35
2023-04-26T07:09:01.222Z,6.53
2023-04-26T07:11:29.676Z,7.95
2023-04-26T07:13:57.204Z,6.97
2023-04-26T07:16:24.880Z,7.40
2023-04-26T07:18:53.078Z,6.85
2023-04-26T07:21:20.614Z,7.15
2023-04-26T07:23:47.801Z,7.93
2023-04-26T07:26:15.086Z,8.05
2023-04-26T07:28:43.068Z,9.13
2023-04-26T07:31:11.041Z,7.70
2023-04-26T07:33:38.903Z,7.95
2023-04-26T07:36:06.473Z,8.63
2023-04-26T07:38:33.743Z,8.20
2023-04-26T07:41:01.524Z,7.78
2023-04-26T07:43:31.388Z,8.02
2023-04-26T07:46:02.366Z,7.68
2023-04-26T07:48:29.869Z,8.00
2023-04-26T07:50:57.417Z,8.00
2023-04-26T07:53:24.862Z,8.07
2023-04-26T07:55:52.300Z,7.82
2023-04-26T07:58:19.984Z,7.90
2023-04-26T08:00:47.248Z,8.65
2023-04-26T08:03:18.285Z,8.90
2023-04-26T08:05:46.041Z,7.95
2023-04-26T08:08:13.591Z,8.73
2023-04-26T08:10:42.809Z,7.93
2023-04-26T08:13:10.043Z,8.00
2023-04-26T08:15:37.653Z,8.43
2023-04-26T08:18:05.150Z,8.30
2023-04-26T08:20:32.838Z,8.43
2023-04-26T08:23:00.555Z,8.60
2023-04-26T08:25:27.984Z,8.60
2023-04-26T08:27:55.387Z,8.77
2023-04-26T08:30:23.456Z,9.10
2023-04-26T08:32:51.003Z,8.48
2023-04-26T08:35:18.345Z,8.65
2023-04-26T08:37:45.781Z,8.15
2023-04-26T08:40:13.585Z,8.57
2023-04-26T08:42:44.032Z,9.63
2023-04-26T08:45:11.828Z,8.50
2023-04-26T08:47:47.841Z,9.13
2023-04-26T08:50:16.964Z,9.95
2023-04-26T08:52:45.260Z,8.60
2023-04-26T08:55:14.563Z,8.68
2023-04-26T08:57:44.046Z,8.25
2023-04-26T09:00:15.950Z,8.35
2023-04-26T09:02:48.078Z,8.38
2023-04-26T09:05:15.620Z,9.45
2023-04-26T09:07:45.796Z,9.18
2023-04-26T09:10:17.975Z,8.85
2023-04-26T09:12:46.031Z,8.93
2023-04-26T09:15:15.609Z,8.63
2023-04-26T09:17:42.979Z,9.05
2023-04-26T09:20:23.426Z,8.95
2023-04-26T09:22:53.937Z,8.38
2023-04-26T09:25:29.757Z,9.43
2023-04-26T09:27:58.194Z,9.07
2023-04-26T09:30:26.593Z,8.30
2023-04-26T09:32:59.298Z,8.60
2023-04-26T09:35:31.301Z,9.43
2023-04-26T09:38:09.035Z,9.35
2023-04-26T09:40:50.486Z,8.77
2023-04-26T09:43:18.770Z,9.70
2023-04-26T09:45:56.276Z,8.82
2023-04-26T09:48:30.437Z,9.48
2023-04-26T09:51:03.401Z,8.82
2023-04-26T09:53:37.520Z,9.00
2023-04-26T09:56:10.948Z,8.95
2023-04-26T09:58:40.647Z,9.27
2023-04-26T10:01:11.961Z,10.50
2023-04-26T10:03:40.217Z,8.38
2023-04-26T10:06:07.833Z,8.95
2023-04-26T10:08:36.676Z,7.93
2023-04-26T10:11:05.045Z,8.40
2023-04-26T10:13:33.105Z,8.77
2023-04-26T10:16:01.738Z,8.63
2023-04-26T10:18:30.625Z,8.18
2023-04-26T10:21:02.340Z,8.25
2023-04-26T10:23:29.855Z,8.65
2023-04-26T10:25:57.076Z,10.05
2023-04-26T10:28:46.271Z,9.15
2023-04-26T10:31:13.538Z,8.50
2023-04-26T10:33:40.934Z,8.35
2023-04-26T10:36:09.423Z,8.73
2023-04-26T10:39:10.488Z,8.60
2023-04-26T10:41:40.009Z,8.00
2023-04-26T10:44:45.115Z,7.10
2023-04-26T10:47:41.778Z,7.85
2023-04-26T10:50:11.143Z,7.00
2023-04-26T10:53:18.077Z,6.50
2023-04-26T10:55:45.447Z,6.65
2023-04-26T10:58:33.690Z,5.32
2023-04-26T11:01:11.911Z,6.20
2023-04-26T11:03:41.604Z,5.30
2023-04-26T11:06:15.402Z,5.10
2023-04-26T11:08:43.327Z,3.70
2023-04-26T11:11:12.234Z,5.03
2023-04-26T11:13:41.997Z,4.80
2023-04-26T11:16:13.960Z,5.85
2023-04-26T11:18:44.535Z,6.13
2023-04-26T11:21:13.938Z,6.25
2023-04-26T11:23:41.645Z,6.05
2023-04-26T11:26:09.696Z,5.60
2023-04-26T11:28:38.998Z,5.75
2023-04-26T11:31:07.528Z,6.10
2023-04-26T11:33:34.838Z,5.55
2023-04-26T11:36:02.384Z,5.63
2023-04-26T11:38:30.006Z,5.22
2023-04-26T11:41:02.292Z,5.57
2023-04-26T11:43:32.306Z,5.30
2023-04-26T11:46:01.450Z,4.15
2023-04-26T11:48:30.249Z,3.67
2023-04-26T11:50:59.690Z,3.38
2023-04-26T11:53:38.432Z,3.00
2023-04-26T11:56:20.698Z,3.10
2023-04-26T11:58:52.502Z,3.05
2023-04-26T12:01:24.809Z,3.13
2023-04-26T12:03:59.711Z,3.60
2023-04-26T12:06:43.071Z,3.28
2023-04-26T12:09:11.624Z,2.97
2023-04-26T12:11:39.871Z,3.13
2023-04-26T12:14:10.084Z,2.75
2023-04-26T12:16:37.819Z,2.58
2023-04-26T12:19:09.765Z,2.10
2023-04-26T12:21:44.516Z,2.75
2023-04-26T12:24:34.622Z,2.78
2023-04-26T12:27:03.057Z,2.10
2023-04-26T12:29:32.108Z,2.55
2023-04-26T12:32:00.516Z,2.83
2023-04-26T12:34:28.344Z,2.72
2023-04-26T12:36:55.878Z,2.80
2023-04-26T12:39:23.354Z,2.60
2023-04-26T12:41:50.685Z,2.70
2023-04-26T12:44:19.065Z,2.60
2023-04-26T12:46:48.735Z,2.92
2023-04-26T12:49:16.031Z,3.13
2023-04-26T12:51:43.245Z,3.22
2023-04-26T12:54:10.532Z,3.00
2023-04-26T12:56:43.581Z,2.30
2023-04-26T12:59:11.136Z,2.53
2023-04-26T13:01:38.520Z,2.75
2023-04-26T13:04:06.634Z,2.70
2023-04-26T13:06:34.561Z,2.60
2023-04-26T13:09:02.753Z,2.47
2023-04-26T13:11:30.112Z,2.50
2023-04-26T13:13:57.411Z,2.95
2023-04-26T13:16:24.975Z,3.60
2023-04-26T13:18:58.363Z,3.10
2023-04-26T13:21:26.995Z,3.03
2023-04-26T13:23:54.713Z,2.80
2023-04-26T13:26:22.459Z,2.60
2023-04-26T13:28:50.284Z,2.33
2023-04-26T13:31:18.237Z,3.05
2023-04-26T13:33:47.714Z,2.50
2023-04-26T13:36:16.681Z,3.30
2023-04-26T13:38:49.905Z,2.80
2023-04-26T13:41:18.941Z,2.58
2023-04-26T13:43:46.292Z,2.92
2023-04-26T13:46:13.790Z,3.15
2023-04-26T13:48:41.349Z,2.92
2023-04-26T13:51:08.674Z,2.42
2023-04-26T13:53:36.562Z,2.58
2023-04-26T13:56:03.898Z,2.30
2023-04-26T13:58:31.203Z,2.20
2023-04-26T14:00:58.462Z,2.63
2023-04-26T14:03:27.068Z,2.53
2023-04-26T14:05:54.946Z,3.47
2023-04-26T14:08:22.369Z,2.83
2023-04-26T14:10:50.893Z,2.22
2023-04-26T14:13:18.243Z,2.33
2023-04-26T14:15:45.708Z,3.20
2023-04-26T14:18:14.418Z,2.50
2023-04-26T14:20:41.878Z,2.47
2023-04-26T14:23:09.431Z,2.50
2023-04-26T14:25:36.798Z,2.20
2023-04-26T14:28:04.266Z,2.45
2023-04-26T14:30:31.569Z,2.75
2023-04-26T14:32:58.765Z,2.30
2023-04-26T14:35:26.391Z,2.38
2023-04-26T14:37:53.636Z,2.20
2023-04-26T14:40:20.971Z,1.88
2023-04-26T14:42:48.149Z,2.40
2023-04-26T14:45:15.322Z,2.63
2023-04-26T14:47:42.681Z,2.60
2023-04-26T14:50:11.226Z,2.65
2023-04-26T14:52:38.385Z,4.10
2023-04-26T14:55:06.573Z,2.25
2023-04-26T14:57:34.716Z,2.55
2023-04-26T15:00:07.316Z,2.30
2023-04-26T15:02:35.402Z,2.30
2023-04-26T15:05:04.363Z,2.28
2023-04-26T15:07:33.085Z,2.58
2023-04-26T15:10:01.816Z,2.05
2023-04-26T15:12:31.976Z,2.10
2023-04-26T15:15:08.727Z,1.63
2023-04-26T15:17:36.392Z,2.20
2023-04-26T15:20:06.867Z,2.50
2023-04-26T15:22:44.358Z,1.80
2023-04-26T15:25:15.709Z,2.03
2023-04-26T15:27:43.275Z,2.33
2023-04-26T15:30:10.946Z,2.78
2023-04-26T15:32:38.271Z,1.80
2023-04-26T15:35:07.378Z,1.90
2023-04-26T15:37:38.003Z,2.92
2023-04-26T15:40:06.273Z,1.92
2023-04-26T15:42:33.358Z,1.92
2023-04-26T15:45:00.613Z,1.70
2023-04-26T15:47:27.871Z,2.17
2023-04-26T15:49:55.295Z,1.65
2023-04-26T15:52:22.381Z,2.13
2023-04-26T15:54:49.505Z,2.08
2023-04-26T15:57:16.690Z,1.85
2023-04-26T15:59:43.948Z,1.77
2023-04-26T16:02:11.580Z,2.13
2023-04-26T16:04:39.180Z,2.20
2023-04-26T16:07:06.407Z,1.42
2023-04-26T16:09:33.613Z,2.08
2023-04-26T16:12:01.202Z,1.73
2023-04-26T16:14:28.453Z,1.83
2023-04-26T16:16:57.910Z,1.63
2023-04-26T16:19:25.767Z,2.10
2023-04-26T16:21:53.011Z,2.47
2023-04-26T16:24:20.474Z,1.70
2023-04-26T16:26:48.026Z,1.52
2023-04-26T16:29:15.226Z,1.52
2023-04-26T16:31:45.726Z,1.38
2023-04-26T16:34:13.671Z,1.52
2023-04-26T16:36:41.026Z,1.50
2023-04-26T16:39:17.328Z,1.85
2023-04-26T16:41:44.525Z,1.90
2023-04-26T16:44:11.753Z,3.13
2023-04-26T16:46:39.081Z,1.42
2023-04-26T16:49:09.624Z,1.88
2023-04-26T16:51:38.150Z,1.75
2023-04-26T16:54:05.540Z,1.63
2023-04-26T16:56:33.412Z,1.45
2023-04-26T16:59:04.675Z,1.50
2023-04-26T17:01:32.204Z,1.50
2023-04-26T17:03:59.679Z,1.38
2023-04-26T17:06:29.880Z,1.63
2023-04-26T17:08:57.113Z,1.63
2023-04-26T17:11:24.485Z,1.83
2023-04-26T17:13:54.248Z,1.40
2023-04-26T17:16:21.599Z,1.50
2023-04-26T17:18:49.365Z,1.52
2023-04-26T17:21:16.499Z,1.90
2023-04-26T17:23:43.681Z,3.00
2023-04-26T17:26:10.942Z,1.70
2023-04-26T17:28:39.082Z,2.35
2023-04-26T17:31:09.614Z,1.90
2023-04-26T17:33:37.176Z,1.50
2023-04-26T17:36:04.828Z,1.52
2023-04-26T17:38:31.991Z,1.90
2023-04-26T17:40:59.893Z,2.42
2023-04-26T17:43:27.094Z,1.92
2023-04-26T17:45:59.806Z,2.80
2023-04-26T17:48:29.063Z,2.42
2023-04-26T17:50:57.123Z,2.95
2023-04-26T17:53:25.178Z,2.30
2023-04-26T17:55:53.255Z,2.17
2023-04-26T17:58:20.702Z,2.80
2023-04-26T18:00:49.149Z,3.40
2023-04-26T18:03:16.607Z,2.75
2023-04-26T18:05:43.852Z,2.92
2023-04-26T18:08:11.385Z,2.65
2023-04-26T18:10:38.714Z,2.50
2023-04-26T18:13:06.067Z,2.70
2023-04-26T18:15:33.276Z,2.30
2023-04-26T18:18:05.974Z,2.35
2023-04-26T18:20:37.898Z,2.38
2023-04-26T18:23:05.049Z,2.75
2023-04-26T18:25:32.369Z,2.38
2023-04-26T18:27:59.566Z,2.10
2023-04-26T18:30:27.032Z,2.35
2023-04-26T18:32:54.263Z,2.50
2023-04-26T18:35:21.891Z,2.97
2023-04-26T18:37:49.186Z,2.30
2023-04-26T18:40:20.505Z,2.80
2023-04-26T18:42:48.948Z,2.30
2023-04-26T18:45:16.396Z,2.42
2023-04-26T18:47:43.679Z,2.70
2023-04-26T18:50:11.061Z,2.45
2023-04-26T18:52:39.733Z,2.50
2023-04-26T18:55:08.091Z,2.80
2023-04-26T18:57:36.118Z,2.60
2023-04-26T19:00:05.344Z,2.00
2023-04-26T19:02:34.397Z,2.78
2023-04-26T19:05:02.271Z,2.70
2023-04-26T19:07:29.925Z,2.42
2023-04-26T19:09:59.626Z,2.15
2023-04-26T19:12:27.798Z,2.63
2023-04-26T19:14:54.950Z,2.10
2023-04-26T19:17:22.766Z,2.75
2023-04-26T19:19:55.420Z,2.60
2023-04-26T19:22:22.718Z,2.50
2023-04-26T19:24:50.907Z,2.75
2023-04-26T19:27:18.623Z,2.97
2023-04-26T19:29:45.792Z,2.53
2023-04-26T19:32:14.430Z,2.78
2023-04-26T19:34:41.649Z,2.20
2023-04-26T19:37:08.881Z,2.47
2023-04-26T19:39:36.263Z,2.75
2023-04-26T19:42:03.767Z,2.45
2023-04-26T19:44:31.348Z,2.33
2023-04-26T19:46:58.819Z,2.42
2023-04-26T19:49:28.496Z,2.22
2023-04-26T19:51:56.553Z,2.83
2023-04-26T19:54:24.392Z,2.63
2023-04-26T19:56:52.018Z,2.60
2023-04-26T19:59:19.376Z,2.92
2023-04-26T20:01:46.662Z,3.00
2023-04-26T20:04:14.102Z,3.28
2023-04-26T20:06:41.974Z,3.70
2023-04-26T20:09:10.848Z,3.75
2023-04-26T20:11:38.303Z,3.10
2023-04-26T20:14:05.966Z,2.65
2023-04-26T20:16:33.284Z,3.40
2023-04-26T20:19:00.589Z,3.88
2023-04-26T20:21:28.966Z,3.40
2023-04-26T20:23:56.818Z,3.95
2023-04-26T20:26:24.173Z,3.45
2023-04-26T20:28:51.488Z,3.55
2023-04-26T20:31:20.366Z,3.05
2023-04-26T20:33:47.663Z,3.25
2023-04-26T20:36:15.168Z,3.40
2023-04-26T20:38:42.632Z,3.25
2023-04-26T20:41:10.268Z,3.28
2023-04-26T20:43:37.480Z,3.50
2023-04-26T20:46:04.992Z,3.60
2023-04-26T20:48:32.402Z,3.13
2023-04-26T20:51:02.013Z,3.40
2023-04-26T20:53:29.225Z,3.47
2023-04-26T20:55:56.972Z,3.03
2023-04-26T20:58:24.526Z,2.60
2023-04-26T21:00:52.419Z,3.05
2023-04-26T21:03:19.793Z,3.08
2023-04-26T21:05:47.499Z,2.95
2023-04-26T21:08:15.403Z,2.42
2023-04-26T21:10:43.259Z,3.17
2023-04-26T21:13:10.646Z,3.10
2023-04-26T21:15:37.938Z,3.03
2023-04-26T21:18:05.560Z,2.90
2023-04-26T21:20:33.110Z,2.80
2023-04-26T21:23:04.035Z,3.03
2023-04-26T21:25:31.539Z,3.17
2023-04-26T21:27:58.924Z,4.03
2023-04-26T21:30:26.103Z,5.30
2023-04-26T21:32:53.722Z,5.05
2023-04-26T21:35:21.084Z,5.10
2023-04-26T21:37:48.521Z,4.93
2023-04-26T21:40:15.794Z,4.55
2023-04-26T21:42:46.691Z,5.15
2023-04-26T21:45:18.951Z,4.82
2023-04-26T21:47:46.335Z,4.75
2023-04-26T21:50:14.371Z,5.28
2023-04-26T21:52:41.726Z,4.85
2023-04-26T21:55:09.386Z,5.18
2023-04-26T21:57:36.646Z,3.97
2023-04-26T22:00:07.477Z,4.38
2023-04-26T22:02:41.760Z,4.20
2023-04-26T22:05:09.359Z,3.65
2023-04-26T22:07:36.554Z,3.75
2023-04-26T22:10:03.861Z,4.75
2023-04-26T22:12:31.466Z,4.68
2023-04-26T22:14:58.887Z,4.60
2023-04-26T22:17:27.228Z,4.03
2023-04-26T22:19:55.664Z,3.92
2023-04-26T22:22:23.012Z,4.15
2023-04-26T22:24:51.306Z,3.53
2023-04-26T22:27:18.828Z,3.45
2023-04-26T22:29:46.089Z,3.28
2023-04-26T22:32:13.538Z,3.45
2023-04-26T22:34:43.103Z,4.13
2023-04-26T22:37:20.898Z,4.45
2023-04-26T22:39:49.612Z,3.58
2023-04-26T22:42:16.788Z,3.15
2023-04-26T22:44:44.032Z,3.78
2023-04-26T22:47:11.465Z,3.55
2023-04-26T22:49:38.574Z,4.60
2023-04-26T22:52:12.107Z,6.50
2023-04-26T22:54:44.565Z,5.03
2023-04-26T22:57:11.850Z,5.28
2023-04-26T22:59:39.070Z,5.75
2023-04-26T23:02:45.241Z,6.40
2023-04-26T23:05:10.746Z,5.32
2023-04-26T23:07:39.415Z,4.70
2023-04-26T23:10:07.524Z,6.57
2023-04-26T23:12:36.152Z,5.75
2023-04-26T23:15:05.161Z,5.18
2023-04-26T23:17:34.340Z,4.50
2023-04-26T23:20:01.868Z,3.92
2023-04-26T23:22:31.505Z,4.63
2023-04-26T23:24:58.856Z,5.65
2023-04-26T23:27:26.160Z,5.43
2023-04-26T23:29:53.328Z,4.43
2023-04-26T23:32:20.935Z,5.13
2023-04-26T23:34:48.240Z,5.43
2023-04-26T23:37:15.400Z,5.85
2023-04-26T23:39:43.170Z,5.72
2023-04-26T23:42:10.648Z,4.60
2023-04-26T23:44:37.905Z,4.45
2023-04-26T23:47:05.477Z,5.40
2023-04-26T23:49:32.668Z,4.88
2023-04-26T23:52:02.848Z,4.47
2023-04-26T23:54:31.345Z,6.32
2023-04-26T23:57:00.597Z,5.40
2023-04-26T23:59:28.008Z,4.40
